AIRPORT ID: KAPV

DATE: 2024-05-27 ZULU TIME: 20.55 LOCAL TIME: 13.55


METAR KAPV 272055Z AUTO 18009G16KT 150V210 10SM 29/02 A3000

ALTIMETER: A3000 Q1016

DENSITY ALT: 5200 Ft

WIND DIRECT: 200

WIND SPEED: 9 Gust

WIND CONDITIONS:

VISIBILTY: 10SM 9999M

TEMPERATURE: 85 F 29 C

DEW POINT: 35 F 2 C

HUMID: 17%

LCL: Above 5,000 feet

RADIO CHECK: 1

ADVISARIES: 6

GREETINGS: 1

CONVERSATIONS: 44